sensor_id;sensor_type;location;lat;lon;timestamp;temperature;humidity
43946;DHT22;29599;51.196;4.428;2022-10-13T00:00:45;12.30;99.90
43946;DHT22;29599;51.196;4.428;2022-10-13T00:03:11;12.30;99.90
43946;DHT22;29599;51.196;4.428;2022-10-13T00:05:45;12.30;99.90
43946;DHT22;29599;51.196;4.428;2022-10-13T00:08:12;12.30;99.90
43946;DHT22;29599;51.196;4.428;2022-10-13T00:10:39;12.30;99.90
43946;DHT22;29599;51.196;4.428;2022-10-13T00:13:06;12.30;99.90
43946;DHT22;29599;51.196;4.428;2022-10-13T00:15:32;12.30;99.90
43946;DHT22;29599;51.196;4.428;2022-10-13T00:17:58;12.30;99.90
43946;DHT22;29599;51.196;4.428;2022-10-13T00:20:23;12.30;99.90
43946;DHT22;29599;51.196;4.428;2022-10-13T00:22:49;12.30;99.90
43946;DHT22;29599;51.196;4.428;2022-10-13T00:25:14;12.30;99.90
43946;DHT22;29599;51.196;4.428;2022-10-13T00:27:40;12.30;99.90
43946;DHT22;29599;51.196;4.428;2022-10-13T00:30:06;12.30;99.90
43946;DHT22;29599;51.196;4.428;2022-10-13T00:32:31;12.30;99.90
43946;DHT22;29599;51.196;4.428;2022-10-13T00:34:57;12.40;99.90
43946;DHT22;29599;51.196;4.428;2022-10-13T00:37:23;12.40;99.90
43946;DHT22;29599;51.196;4.428;2022-10-13T00:39:49;12.40;99.90
43946;DHT22;29599;51.196;4.428;2022-10-13T00:42:15;12.40;99.90
43946;DHT22;29599;51.196;4.428;2022-10-13T00:45:03;12.40;99.90
43946;DHT22;29599;51.196;4.428;2022-10-13T00:47:39;12.40;99.90
43946;DHT22;29599;51.196;4.428;2022-10-13T00:50:08;12.40;99.90
43946;DHT22;29599;51.196;4.428;2022-10-13T00:52:36;12.40;99.90
43946;DHT22;29599;51.196;4.428;2022-10-13T00:55:03;12.40;99.90
43946;DHT22;29599;51.196;4.428;2022-10-13T00:57:29;12.40;99.90
43946;DHT22;29599;51.196;4.428;2022-10-13T00:59:55;12.40;99.90
43946;DHT22;29599;51.196;4.428;2022-10-13T01:02:22;12.40;99.90
43946;DHT22;29599;51.196;4.428;2022-10-13T01:04:52;12.40;99.90
43946;DHT22;29599;51.196;4.428;2022-10-13T01:07:18;12.40;99.90
43946;DHT22;29599;51.196;4.428;2022-10-13T01:09:44;12.40;99.90
43946;DHT22;29599;51.196;4.428;2022-10-13T01:14:48;12.50;99.90
43946;DHT22;29599;51.196;4.428;2022-10-13T01:17:36;12.50;99.90
43946;DHT22;29599;51.196;4.428;2022-10-13T01:30:02;12.50;99.90
43946;DHT22;29599;51.196;4.428;2022-10-13T01:34:54;12.50;99.90
43946;DHT22;29599;51.196;4.428;2022-10-13T01:38:00;12.50;99.90
43946;DHT22;29599;51.196;4.428;2022-10-13T01:40:15;12.60;99.90
43946;DHT22;29599;51.196;4.428;2022-10-13T01:43:06;12.60;99.90
43946;DHT22;29599;51.196;4.428;2022-10-13T01:45:45;12.60;99.90
43946;DHT22;29599;51.196;4.428;2022-10-13T01:48:14;12.60;99.90
43946;DHT22;29599;51.196;4.428;2022-10-13T01:50:41;12.60;99.90
43946;DHT22;29599;51.196;4.428;2022-10-13T01:53:09;12.60;99.90
43946;DHT22;29599;51.196;4.428;2022-10-13T01:55:46;12.60;99.90
43946;DHT22;29599;51.196;4.428;2022-10-13T01:58:12;12.60;99.90
43946;DHT22;29599;51.196;4.428;2022-10-13T02:00:43;12.60;99.90
43946;DHT22;29599;51.196;4.428;2022-10-13T02:03:22;12.60;99.90
43946;DHT22;29599;51.196;4.428;2022-10-13T02:06:04;12.60;99.90
43946;DHT22;29599;51.196;4.428;2022-10-13T02:09:13;12.60;99.90
43946;DHT22;29599;51.196;4.428;2022-10-13T02:11:48;12.60;99.90
43946;DHT22;29599;51.196;4.428;2022-10-13T02:14:23;12.60;99.90
43946;DHT22;29599;51.196;4.428;2022-10-13T02:16:52;12.60;99.90
43946;DHT22;29599;51.196;4.428;2022-10-13T02:19:19;12.60;99.90
43946;DHT22;29599;51.196;4.428;2022-10-13T02:21:46;12.60;99.90
43946;DHT22;29599;51.196;4.428;2022-10-13T02:24:12;12.60;99.90
43946;DHT22;29599;51.196;4.428;2022-10-13T02:26:38;12.60;99.90
43946;DHT22;29599;51.196;4.428;2022-10-13T02:29:13;12.60;99.90
43946;DHT22;29599;51.196;4.428;2022-10-13T02:31:39;12.60;99.90
43946;DHT22;29599;51.196;4.428;2022-10-13T02:34:05;12.60;99.90
43946;DHT22;29599;51.196;4.428;2022-10-13T02:36:31;12.60;99.90
43946;DHT22;29599;51.196;4.428;2022-10-13T02:38:57;12.60;99.90
43946;DHT22;29599;51.196;4.428;2022-10-13T02:41:23;12.50;99.90
43946;DHT22;29599;51.196;4.428;2022-10-13T02:43:49;12.50;99.90
43946;DHT22;29599;51.196;4.428;2022-10-13T02:46:15;12.50;99.90
43946;DHT22;29599;51.196;4.428;2022-10-13T02:48:40;12.50;99.90
43946;DHT22;29599;51.196;4.428;2022-10-13T02:51:06;12.50;99.90
43946;DHT22;29599;51.196;4.428;2022-10-13T02:53:31;12.50;99.90
43946;DHT22;29599;51.196;4.428;2022-10-13T02:55:57;12.50;99.90
43946;DHT22;29599;51.196;4.428;2022-10-13T02:58:23;12.50;99.90
43946;DHT22;29599;51.196;4.428;2022-10-13T03:00:48;12.50;99.90
43946;DHT22;29599;51.196;4.428;2022-10-13T03:03:14;12.50;99.90
43946;DHT22;29599;51.196;4.428;2022-10-13T03:05:39;12.50;99.90
43946;DHT22;29599;51.196;4.428;2022-10-13T03:08:05;12.50;99.90
43946;DHT22;29599;51.196;4.428;2022-10-13T03:10:31;12.50;99.90
43946;DHT22;29599;51.196;4.428;2022-10-13T03:12:57;12.50;99.90
43946;DHT22;29599;51.196;4.428;2022-10-13T03:15:23;12.50;99.90
43946;DHT22;29599;51.196;4.428;2022-10-13T03:17:49;12.50;99.90
43946;DHT22;29599;51.196;4.428;2022-10-13T03:20:15;12.50;99.90
43946;DHT22;29599;51.196;4.428;2022-10-13T03:22:40;12.50;99.90
43946;DHT22;29599;51.196;4.428;2022-10-13T03:25:06;12.40;99.90
43946;DHT22;29599;51.196;4.428;2022-10-13T03:27:32;12.50;99.90
43946;DHT22;29599;51.196;4.428;2022-10-13T03:29:58;12.40;99.90
43946;DHT22;29599;51.196;4.428;2022-10-13T03:32:23;12.40;99.90
43946;DHT22;29599;51.196;4.428;2022-10-13T03:34:49;12.40;99.90
43946;DHT22;29599;51.196;4.428;2022-10-13T03:37:16;12.40;99.90
43946;DHT22;29599;51.196;4.428;2022-10-13T03:39:41;12.40;99.90
43946;DHT22;29599;51.196;4.428;2022-10-13T03:42:08;12.40;99.90
43946;DHT22;29599;51.196;4.428;2022-10-13T03:44:33;12.40;99.90
43946;DHT22;29599;51.196;4.428;2022-10-13T03:46:59;12.40;99.90
43946;DHT22;29599;51.196;4.428;2022-10-13T03:49:25;12.40;99.90
43946;DHT22;29599;51.196;4.428;2022-10-13T03:51:50;12.40;99.90
43946;DHT22;29599;51.196;4.428;2022-10-13T03:54:16;12.40;99.90
43946;DHT22;29599;51.196;4.428;2022-10-13T03:56:41;12.40;99.90
43946;DHT22;29599;51.196;4.428;2022-10-13T03:59:09;12.40;99.90
43946;DHT22;29599;51.196;4.428;2022-10-13T04:01:35;12.40;99.90
43946;DHT22;29599;51.196;4.428;2022-10-13T04:04:01;12.40;99.90
43946;DHT22;29599;51.196;4.428;2022-10-13T04:06:27;12.40;99.90
43946;DHT22;29599;51.196;4.428;2022-10-13T04:08:54;12.40;99.90
43946;DHT22;29599;51.196;4.428;2022-10-13T04:11:20;12.40;99.90
43946;DHT22;29599;51.196;4.428;2022-10-13T04:13:45;12.40;99.90
43946;DHT22;29599;51.196;4.428;2022-10-13T04:16:17;12.40;99.90
43946;DHT22;29599;51.196;4.428;2022-10-13T04:18:44;12.40;99.90
43946;DHT22;29599;51.196;4.428;2022-10-13T04:21:12;12.40;99.90
43946;DHT22;29599;51.196;4.428;2022-10-13T04:23:38;12.40;99.90
43946;DHT22;29599;51.196;4.428;2022-10-13T04:26:04;12.50;99.90
43946;DHT22;29599;51.196;4.428;2022-10-13T04:28:31;12.50;99.90
43946;DHT22;29599;51.196;4.428;2022-10-13T04:31:03;12.50;99.90
43946;DHT22;29599;51.196;4.428;2022-10-13T04:33:29;12.50;99.90
43946;DHT22;29599;51.196;4.428;2022-10-13T04:35:55;12.50;99.90
43946;DHT22;29599;51.196;4.428;2022-10-13T04:38:20;12.40;99.90
43946;DHT22;29599;51.196;4.428;2022-10-13T04:40:46;12.50;99.90
43946;DHT22;29599;51.196;4.428;2022-10-13T04:43:12;12.50;99.90
43946;DHT22;29599;51.196;4.428;2022-10-13T04:45:37;12.50;99.90
43946;DHT22;29599;51.196;4.428;2022-10-13T04:48:03;12.50;99.90
43946;DHT22;29599;51.196;4.428;2022-10-13T04:50:29;12.40;99.90
43946;DHT22;29599;51.196;4.428;2022-10-13T04:52:54;12.40;99.90
43946;DHT22;29599;51.196;4.428;2022-10-13T04:55:20;12.40;99.90
43946;DHT22;29599;51.196;4.428;2022-10-13T04:57:45;12.40;99.90
43946;DHT22;29599;51.196;4.428;2022-10-13T05:00:11;12.40;99.90
43946;DHT22;29599;51.196;4.428;2022-10-13T05:02:37;12.40;99.90
43946;DHT22;29599;51.196;4.428;2022-10-13T05:05:03;12.40;99.90
43946;DHT22;29599;51.196;4.428;2022-10-13T05:07:30;12.40;99.90
43946;DHT22;29599;51.196;4.428;2022-10-13T05:09:56;12.40;99.90
43946;DHT22;29599;51.196;4.428;2022-10-13T05:12:21;12.40;99.90
43946;DHT22;29599;51.196;4.428;2022-10-13T05:14:47;12.40;99.90
43946;DHT22;29599;51.196;4.428;2022-10-13T05:17:12;12.40;99.90
43946;DHT22;29599;51.196;4.428;2022-10-13T05:19:38;12.40;99.90
43946;DHT22;29599;51.196;4.428;2022-10-13T05:22:04;12.40;99.90
43946;DHT22;29599;51.196;4.428;2022-10-13T05:24:29;12.40;99.90
43946;DHT22;29599;51.196;4.428;2022-10-13T05:27:03;12.40;99.90
43946;DHT22;29599;51.196;4.428;2022-10-13T05:29:28;12.50;99.90
43946;DHT22;29599;51.196;4.428;2022-10-13T05:31:54;12.50;99.90
43946;DHT22;29599;51.196;4.428;2022-10-13T05:34:19;12.40;99.90
43946;DHT22;29599;51.196;4.428;2022-10-13T05:36:45;12.50;99.90
43946;DHT22;29599;51.196;4.428;2022-10-13T05:39:10;12.50;99.90
43946;DHT22;29599;51.196;4.428;2022-10-13T05:41:37;12.40;99.90
43946;DHT22;29599;51.196;4.428;2022-10-13T05:44:06;12.50;99.90
43946;DHT22;29599;51.196;4.428;2022-10-13T05:46:32;12.50;99.90
43946;DHT22;29599;51.196;4.428;2022-10-13T05:48:58;12.50;99.90
43946;DHT22;29599;51.196;4.428;2022-10-13T05:51:35;12.50;99.90
43946;DHT22;29599;51.196;4.428;2022-10-13T05:54:13;12.50;99.90
43946;DHT22;29599;51.196;4.428;2022-10-13T05:56:54;12.50;99.90
43946;DHT22;29599;51.196;4.428;2022-10-13T05:59:22;12.50;99.90
43946;DHT22;29599;51.196;4.428;2022-10-13T06:01:49;12.50;99.90
43946;DHT22;29599;51.196;4.428;2022-10-13T06:04:31;12.50;99.90
43946;DHT22;29599;51.196;4.428;2022-10-13T06:06:58;12.50;99.90
43946;DHT22;29599;51.196;4.428;2022-10-13T06:09:26;12.50;99.90
43946;DHT22;29599;51.196;4.428;2022-10-13T06:11:55;12.50;99.90
43946;DHT22;29599;51.196;4.428;2022-10-13T06:14:21;12.50;99.90
43946;DHT22;29599;51.196;4.428;2022-10-13T06:16:46;12.50;99.90
43946;DHT22;29599;51.196;4.428;2022-10-13T06:19:12;12.50;99.90
43946;DHT22;29599;51.196;4.428;2022-10-13T06:21:37;12.50;99.90
43946;DHT22;29599;51.196;4.428;2022-10-13T06:24:03;12.50;99.90
43946;DHT22;29599;51.196;4.428;2022-10-13T06:26:29;12.50;99.90
43946;DHT22;29599;51.196;4.428;2022-10-13T06:28:55;12.50;99.90
43946;DHT22;29599;51.196;4.428;2022-10-13T06:31:20;12.50;99.90
43946;DHT22;29599;51.196;4.428;2022-10-13T06:33:46;12.50;99.90
43946;DHT22;29599;51.196;4.428;2022-10-13T06:36:12;12.50;99.90
43946;DHT22;29599;51.196;4.428;2022-10-13T06:38:37;12.50;99.90
43946;DHT22;29599;51.196;4.428;2022-10-13T06:41:04;12.50;99.90
43946;DHT22;29599;51.196;4.428;2022-10-13T06:43:30;12.50;99.90
43946;DHT22;29599;51.196;4.428;2022-10-13T06:45:57;12.50;99.90
43946;DHT22;29599;51.196;4.428;2022-10-13T06:48:24;12.50;99.90
43946;DHT22;29599;51.196;4.428;2022-10-13T06:50:50;12.50;99.90
43946;DHT22;29599;51.196;4.428;2022-10-13T06:53:15;12.50;99.90
43946;DHT22;29599;51.196;4.428;2022-10-13T06:55:41;12.50;99.90
43946;DHT22;29599;51.196;4.428;2022-10-13T06:58:08;12.50;99.90
43946;DHT22;29599;51.196;4.428;2022-10-13T07:00:34;12.50;99.90
43946;DHT22;29599;51.196;4.428;2022-10-13T07:03:00;12.50;99.90
43946;DHT22;29599;51.196;4.428;2022-10-13T07:05:25;12.50;99.90
43946;DHT22;29599;51.196;4.428;2022-10-13T07:07:51;12.50;99.90
43946;DHT22;29599;51.196;4.428;2022-10-13T07:10:18;12.50;99.90
43946;DHT22;29599;51.196;4.428;2022-10-13T07:12:44;12.60;99.90
43946;DHT22;29599;51.196;4.428;2022-10-13T07:15:10;12.60;99.90
43946;DHT22;29599;51.196;4.428;2022-10-13T07:17:36;12.60;99.90
43946;DHT22;29599;51.196;4.428;2022-10-13T07:20:02;12.60;99.90
43946;DHT22;29599;51.196;4.428;2022-10-13T07:22:29;12.60;99.90
43946;DHT22;29599;51.196;4.428;2022-10-13T07:24:54;12.60;99.90
43946;DHT22;29599;51.196;4.428;2022-10-13T07:27:20;12.60;99.90
43946;DHT22;29599;51.196;4.428;2022-10-13T07:29:46;12.60;99.90
43946;DHT22;29599;51.196;4.428;2022-10-13T07:32:11;12.60;99.90
43946;DHT22;29599;51.196;4.428;2022-10-13T07:34:37;12.60;99.90
43946;DHT22;29599;51.196;4.428;2022-10-13T07:37:02;12.60;99.90
43946;DHT22;29599;51.196;4.428;2022-10-13T07:39:28;12.60;99.90
43946;DHT22;29599;51.196;4.428;2022-10-13T07:41:54;12.60;99.90
43946;DHT22;29599;51.196;4.428;2022-10-13T07:44:19;12.70;99.90
43946;DHT22;29599;51.196;4.428;2022-10-13T07:46:45;12.70;99.90
43946;DHT22;29599;51.196;4.428;2022-10-13T07:49:10;12.70;99.90
43946;DHT22;29599;51.196;4.428;2022-10-13T07:51:36;12.70;99.90
43946;DHT22;29599;51.196;4.428;2022-10-13T07:54:01;12.70;99.90
43946;DHT22;29599;51.196;4.428;2022-10-13T07:56:27;12.70;99.90
43946;DHT22;29599;51.196;4.428;2022-10-13T07:58:53;12.70;99.90
43946;DHT22;29599;51.196;4.428;2022-10-13T08:01:18;12.70;99.90
43946;DHT22;29599;51.196;4.428;2022-10-13T08:03:44;12.80;99.90
43946;DHT22;29599;51.196;4.428;2022-10-13T08:06:12;12.80;99.90
43946;DHT22;29599;51.196;4.428;2022-10-13T08:08:37;12.80;99.90
43946;DHT22;29599;51.196;4.428;2022-10-13T08:11:07;12.90;99.90
43946;DHT22;29599;51.196;4.428;2022-10-13T08:13:33;12.90;99.90
43946;DHT22;29599;51.196;4.428;2022-10-13T08:16:01;12.90;99.90
43946;DHT22;29599;51.196;4.428;2022-10-13T08:18:27;12.90;99.90
43946;DHT22;29599;51.196;4.428;2022-10-13T08:20:53;12.90;99.90
43946;DHT22;29599;51.196;4.428;2022-10-13T08:23:18;12.80;99.90
43946;DHT22;29599;51.196;4.428;2022-10-13T08:25:44;12.80;99.90
43946;DHT22;29599;51.196;4.428;2022-10-13T08:28:21;12.80;99.90
43946;DHT22;29599;51.196;4.428;2022-10-13T08:30:47;12.80;99.90
43946;DHT22;29599;51.196;4.428;2022-10-13T08:33:13;12.80;99.90
43946;DHT22;29599;51.196;4.428;2022-10-13T08:35:39;12.80;99.90
43946;DHT22;29599;51.196;4.428;2022-10-13T08:38:04;12.80;99.90
43946;DHT22;29599;51.196;4.428;2022-10-13T08:40:30;12.80;99.90
43946;DHT22;29599;51.196;4.428;2022-10-13T08:42:56;12.80;99.90
43946;DHT22;29599;51.196;4.428;2022-10-13T08:45:25;12.90;99.90
43946;DHT22;29599;51.196;4.428;2022-10-13T08:48:00;12.90;99.90
43946;DHT22;29599;51.196;4.428;2022-10-13T08:50:31;12.90;99.90
43946;DHT22;29599;51.196;4.428;2022-10-13T08:53:00;12.90;99.90
43946;DHT22;29599;51.196;4.428;2022-10-13T08:57:54;12.90;99.90
43946;DHT22;29599;51.196;4.428;2022-10-13T09:00:20;13.00;99.90
43946;DHT22;29599;51.196;4.428;2022-10-13T09:02:46;13.00;99.90
43946;DHT22;29599;51.196;4.428;2022-10-13T09:05:32;13.00;99.90
43946;DHT22;29599;51.196;4.428;2022-10-13T09:08:02;13.00;99.90
43946;DHT22;29599;51.196;4.428;2022-10-13T09:10:28;13.00;99.90
43946;DHT22;29599;51.196;4.428;2022-10-13T09:12:54;13.00;99.90
43946;DHT22;29599;51.196;4.428;2022-10-13T09:15:20;13.00;99.90
43946;DHT22;29599;51.196;4.428;2022-10-13T09:18:07;13.00;99.90
43946;DHT22;29599;51.196;4.428;2022-10-13T09:20:34;13.10;99.90
43946;DHT22;29599;51.196;4.428;2022-10-13T09:23:05;13.00;99.90
43946;DHT22;29599;51.196;4.428;2022-10-13T09:25:42;13.00;99.90
43946;DHT22;29599;51.196;4.428;2022-10-13T09:28:14;13.00;99.90
43946;DHT22;29599;51.196;4.428;2022-10-13T09:30:43;13.00;99.90
43946;DHT22;29599;51.196;4.428;2022-10-13T09:35:46;13.10;99.90
43946;DHT22;29599;51.196;4.428;2022-10-13T09:38:20;13.10;99.90
43946;DHT22;29599;51.196;4.428;2022-10-13T09:41:04;13.10;99.90
43946;DHT22;29599;51.196;4.428;2022-10-13T09:46:28;13.10;99.90
43946;DHT22;29599;51.196;4.428;2022-10-13T09:48:58;13.10;99.90
43946;DHT22;29599;51.196;4.428;2022-10-13T09:54:03;13.10;99.90
43946;DHT22;29599;51.196;4.428;2022-10-13T09:56:40;13.10;99.90
43946;DHT22;29599;51.196;4.428;2022-10-13T10:01:41;13.10;99.90
43946;DHT22;29599;51.196;4.428;2022-10-13T10:04:11;13.10;99.90
43946;DHT22;29599;51.196;4.428;2022-10-13T10:06:38;13.10;99.90
43946;DHT22;29599;51.196;4.428;2022-10-13T10:11:45;13.10;99.90
43946;DHT22;29599;51.196;4.428;2022-10-13T10:20:12;13.10;99.90
43946;DHT22;29599;51.196;4.428;2022-10-13T10:22:54;13.10;99.90
43946;DHT22;29599;51.196;4.428;2022-10-13T10:36:15;13.00;99.90
43946;DHT22;29599;51.196;4.428;2022-10-13T10:44:20;13.00;99.90
43946;DHT22;29599;51.196;4.428;2022-10-13T10:46:50;13.10;99.90
43946;DHT22;29599;51.196;4.428;2022-10-13T10:49:28;13.10;99.90
43946;DHT22;29599;51.196;4.428;2022-10-13T10:51:55;13.20;99.90
43946;DHT22;29599;51.196;4.428;2022-10-13T10:59:46;13.30;99.90
43946;DHT22;29599;51.196;4.428;2022-10-13T11:05:01;13.30;99.90
43946;DHT22;29599;51.196;4.428;2022-10-13T11:17:28;13.30;99.90
43946;DHT22;29599;51.196;4.428;2022-10-13T11:19:54;13.30;99.90
43946;DHT22;29599;51.196;4.428;2022-10-13T11:22:23;13.30;99.90
43946;DHT22;29599;51.196;4.428;2022-10-13T11:24:57;13.30;99.90
43946;DHT22;29599;51.196;4.428;2022-10-13T11:27:25;13.30;99.90
43946;DHT22;29599;51.196;4.428;2022-10-13T11:29:55;13.30;99.90
43946;DHT22;29599;51.196;4.428;2022-10-13T11:40:08;13.30;99.90
43946;DHT22;29599;51.196;4.428;2022-10-13T11:53:47;13.20;99.90
43946;DHT22;29599;51.196;4.428;2022-10-13T11:56:20;13.20;99.90
43946;DHT22;29599;51.196;4.428;2022-10-13T11:58:46;13.20;99.90
43946;DHT22;29599;51.196;4.428;2022-10-13T12:01:14;13.10;99.90
43946;DHT22;29599;51.196;4.428;2022-10-13T12:03:44;13.10;99.90
43946;DHT22;29599;51.196;4.428;2022-10-13T12:08:47;13.10;99.90
43946;DHT22;29599;51.196;4.428;2022-10-13T12:11:23;13.10;99.90
43946;DHT22;29599;51.196;4.428;2022-10-13T12:13:50;13.10;99.90
43946;DHT22;29599;51.196;4.428;2022-10-13T12:16:17;13.10;99.90
43946;DHT22;29599;51.196;4.428;2022-10-13T12:18:42;13.10;99.90
43946;DHT22;29599;51.196;4.428;2022-10-13T12:21:19;13.20;99.90
43946;DHT22;29599;51.196;4.428;2022-10-13T12:23:47;13.20;99.90
43946;DHT22;29599;51.196;4.428;2022-10-13T12:26:18;13.20;99.90
43946;DHT22;29599;51.196;4.428;2022-10-13T12:29:00;13.30;99.90
43946;DHT22;29599;51.196;4.428;2022-10-13T12:31:37;13.40;99.90
43946;DHT22;29599;51.196;4.428;2022-10-13T12:36:46;13.40;99.90
43946;DHT22;29599;51.196;4.428;2022-10-13T12:39:17;13.40;99.90
43946;DHT22;29599;51.196;4.428;2022-10-13T12:41:45;13.40;99.90
43946;DHT22;29599;51.196;4.428;2022-10-13T12:44:18;13.40;99.90
43946;DHT22;29599;51.196;4.428;2022-10-13T12:46:47;13.40;99.90
43946;DHT22;29599;51.196;4.428;2022-10-13T12:49:16;13.50;99.90
43946;DHT22;29599;51.196;4.428;2022-10-13T12:52:09;13.40;99.90
43946;DHT22;29599;51.196;4.428;2022-10-13T12:54:33;13.50;99.90
43946;DHT22;29599;51.196;4.428;2022-10-13T12:59:40;13.50;99.90
43946;DHT22;29599;51.196;4.428;2022-10-13T13:02:27;13.50;99.90
43946;DHT22;29599;51.196;4.428;2022-10-13T13:04:53;13.50;99.90
43946;DHT22;29599;51.196;4.428;2022-10-13T13:07:34;13.60;99.90
43946;DHT22;29599;51.196;4.428;2022-10-13T13:12:29;13.60;99.90
43946;DHT22;29599;51.196;4.428;2022-10-13T13:14:56;13.60;99.90
43946;DHT22;29599;51.196;4.428;2022-10-13T13:17:28;13.60;99.90
43946;DHT22;29599;51.196;4.428;2022-10-13T13:19:55;13.70;99.90
43946;DHT22;29599;51.196;4.428;2022-10-13T13:22:21;13.70;99.90
43946;DHT22;29599;51.196;4.428;2022-10-13T13:24:49;13.70;99.90
43946;DHT22;29599;51.196;4.428;2022-10-13T13:29:41;13.70;99.90
43946;DHT22;29599;51.196;4.428;2022-10-13T13:32:10;13.70;99.90
43946;DHT22;29599;51.196;4.428;2022-10-13T13:34:36;13.70;99.90
43946;DHT22;29599;51.196;4.428;2022-10-13T13:37:02;13.70;99.90
43946;DHT22;29599;51.196;4.428;2022-10-13T13:39:27;13.70;99.90
43946;DHT22;29599;51.196;4.428;2022-10-13T13:41:53;13.70;99.90
43946;DHT22;29599;51.196;4.428;2022-10-13T13:44:18;13.70;99.90
43946;DHT22;29599;51.196;4.428;2022-10-13T13:46:44;13.80;99.90
43946;DHT22;29599;51.196;4.428;2022-10-13T13:49:10;13.80;99.90
43946;DHT22;29599;51.196;4.428;2022-10-13T13:51:36;13.80;99.90
43946;DHT22;29599;51.196;4.428;2022-10-13T13:54:03;13.70;99.90
43946;DHT22;29599;51.196;4.428;2022-10-13T13:56:28;13.80;99.90
43946;DHT22;29599;51.196;4.428;2022-10-13T13:58:54;13.70;99.90
43946;DHT22;29599;51.196;4.428;2022-10-13T14:01:19;13.70;99.90
43946;DHT22;29599;51.196;4.428;2022-10-13T14:03:45;13.80;99.90
43946;DHT22;29599;51.196;4.428;2022-10-13T14:06:18;13.80;99.90
43946;DHT22;29599;51.196;4.428;2022-10-13T14:08:44;13.80;99.90
43946;DHT22;29599;51.196;4.428;2022-10-13T14:11:10;13.80;99.90
43946;DHT22;29599;51.196;4.428;2022-10-13T14:13:36;13.80;99.90
43946;DHT22;29599;51.196;4.428;2022-10-13T14:16:02;13.80;99.90
43946;DHT22;29599;51.196;4.428;2022-10-13T14:18:28;13.80;99.90
43946;DHT22;29599;51.196;4.428;2022-10-13T14:20:54;13.80;99.90
43946;DHT22;29599;51.196;4.428;2022-10-13T14:23:19;13.80;99.90
43946;DHT22;29599;51.196;4.428;2022-10-13T14:25:45;13.80;99.90
43946;DHT22;29599;51.196;4.428;2022-10-13T14:28:10;13.80;99.90
43946;DHT22;29599;51.196;4.428;2022-10-13T14:30:39;13.80;99.90
43946;DHT22;29599;51.196;4.428;2022-10-13T14:33:06;13.80;99.90
43946;DHT22;29599;51.196;4.428;2022-10-13T14:35:32;13.80;99.90
43946;DHT22;29599;51.196;4.428;2022-10-13T14:37:58;13.80;99.90
43946;DHT22;29599;51.196;4.428;2022-10-13T14:40:23;13.80;99.90
43946;DHT22;29599;51.196;4.428;2022-10-13T14:42:49;13.80;99.90
43946;DHT22;29599;51.196;4.428;2022-10-13T14:45:14;13.80;99.90
43946;DHT22;29599;51.196;4.428;2022-10-13T14:47:41;13.80;99.90
43946;DHT22;29599;51.196;4.428;2022-10-13T14:50:07;13.70;99.90
43946;DHT22;29599;51.196;4.428;2022-10-13T14:52:33;13.70;99.90
43946;DHT22;29599;51.196;4.428;2022-10-13T14:54:58;13.70;99.90
43946;DHT22;29599;51.196;4.428;2022-10-13T14:57:24;13.80;99.90
43946;DHT22;29599;51.196;4.428;2022-10-13T14:59:49;13.80;99.90
43946;DHT22;29599;51.196;4.428;2022-10-13T15:02:15;13.70;99.90
43946;DHT22;29599;51.196;4.428;2022-10-13T15:04:41;13.70;99.90
43946;DHT22;29599;51.196;4.428;2022-10-13T15:07:06;13.70;99.90
43946;DHT22;29599;51.196;4.428;2022-10-13T15:09:32;13.70;99.90
43946;DHT22;29599;51.196;4.428;2022-10-13T15:11:58;13.70;99.90
43946;DHT22;29599;51.196;4.428;2022-10-13T15:14:24;13.70;99.90
43946;DHT22;29599;51.196;4.428;2022-10-13T15:16:49;13.70;99.90
43946;DHT22;29599;51.196;4.428;2022-10-13T15:19:15;13.70;99.90
43946;DHT22;29599;51.196;4.428;2022-10-13T15:21:41;13.70;99.90
43946;DHT22;29599;51.196;4.428;2022-10-13T15:24:06;13.70;99.90
43946;DHT22;29599;51.196;4.428;2022-10-13T15:26:33;13.60;99.90
43946;DHT22;29599;51.196;4.428;2022-10-13T15:28:59;13.70;99.90
43946;DHT22;29599;51.196;4.428;2022-10-13T15:31:24;13.60;99.90
43946;DHT22;29599;51.196;4.428;2022-10-13T15:33:51;13.60;99.90
43946;DHT22;29599;51.196;4.428;2022-10-13T15:36:18;13.60;99.90
43946;DHT22;29599;51.196;4.428;2022-10-13T15:38:45;13.60;99.90
43946;DHT22;29599;51.196;4.428;2022-10-13T15:41:11;13.60;99.90
43946;DHT22;29599;51.196;4.428;2022-10-13T15:43:37;13.60;99.90
43946;DHT22;29599;51.196;4.428;2022-10-13T15:46:05;13.60;99.90
43946;DHT22;29599;51.196;4.428;2022-10-13T15:48:32;13.60;99.90
43946;DHT22;29599;51.196;4.428;2022-10-13T15:50:58;13.60;99.90
43946;DHT22;29599;51.196;4.428;2022-10-13T15:53:23;13.60;99.90
43946;DHT22;29599;51.196;4.428;2022-10-13T15:55:49;13.60;99.90
43946;DHT22;29599;51.196;4.428;2022-10-13T15:58:15;13.70;99.90
43946;DHT22;29599;51.196;4.428;2022-10-13T16:00:41;13.70;99.90
43946;DHT22;29599;51.196;4.428;2022-10-13T16:03:14;13.70;99.90
43946;DHT22;29599;51.196;4.428;2022-10-13T16:05:41;13.70;99.90
43946;DHT22;29599;51.196;4.428;2022-10-13T16:08:07;13.70;99.90
43946;DHT22;29599;51.196;4.428;2022-10-13T16:10:32;13.70;99.90
43946;DHT22;29599;51.196;4.428;2022-10-13T16:12:58;13.60;99.90
43946;DHT22;29599;51.196;4.428;2022-10-13T16:15:23;13.60;99.90
43946;DHT22;29599;51.196;4.428;2022-10-13T16:17:50;13.60;99.90
43946;DHT22;29599;51.196;4.428;2022-10-13T16:20:16;13.60;99.90
43946;DHT22;29599;51.196;4.428;2022-10-13T16:22:42;13.60;99.90
43946;DHT22;29599;51.196;4.428;2022-10-13T16:25:08;13.60;99.90
43946;DHT22;29599;51.196;4.428;2022-10-13T16:27:35;13.60;99.90
43946;DHT22;29599;51.196;4.428;2022-10-13T16:30:00;13.50;99.90
43946;DHT22;29599;51.196;4.428;2022-10-13T16:32:26;13.60;99.90
43946;DHT22;29599;51.196;4.428;2022-10-13T16:34:52;13.50;99.90
43946;DHT22;29599;51.196;4.428;2022-10-13T16:37:17;13.60;99.90
43946;DHT22;29599;51.196;4.428;2022-10-13T16:39:43;13.60;99.90
43946;DHT22;29599;51.196;4.428;2022-10-13T16:42:09;13.50;99.90
43946;DHT22;29599;51.196;4.428;2022-10-13T16:44:34;13.50;99.90
43946;DHT22;29599;51.196;4.428;2022-10-13T16:47:00;13.50;99.90
43946;DHT22;29599;51.196;4.428;2022-10-13T16:49:29;13.50;99.90
43946;DHT22;29599;51.196;4.428;2022-10-13T16:51:55;13.50;99.90
43946;DHT22;29599;51.196;4.428;2022-10-13T16:54:20;13.50;99.90
43946;DHT22;29599;51.196;4.428;2022-10-13T16:56:46;13.50;99.90
43946;DHT22;29599;51.196;4.428;2022-10-13T16:59:12;13.50;99.90
43946;DHT22;29599;51.196;4.428;2022-10-13T17:01:37;13.50;99.90
43946;DHT22;29599;51.196;4.428;2022-10-13T17:04:04;13.50;99.90
43946;DHT22;29599;51.196;4.428;2022-10-13T17:06:30;13.50;99.90
43946;DHT22;29599;51.196;4.428;2022-10-13T17:08:57;13.50;99.90
43946;DHT22;29599;51.196;4.428;2022-10-13T17:11:25;13.50;99.90
43946;DHT22;29599;51.196;4.428;2022-10-13T17:13:52;13.50;99.90
43946;DHT22;29599;51.196;4.428;2022-10-13T17:16:18;13.50;99.90